Time;durP1;ratioP1;P1;durP2;ratioP2;P2;SDS_P1;SDS_P2;PMS_P1;PMS_P2;Temp;Humidity;BMP_temperature;BMP_pressure;BME280_temperature;BME280_humidity;BME280_pressure;Samples;Min_cycle;Max_cycle;Signal;HPM_P1;HPM_P2
2023/02/09 00:00:23;;;;;;;24.47;13.77;;;-2.10;99.90;;;;;;5091958;28;20571;-57
2023/02/09 00:02:49;;;;;;;24.50;13.93;;;-2.30;99.90;;;;;;5091964;28;20208;-57
2023/02/09 00:05:16;;;;;;;26.63;14.77;;;-2.20;99.90;;;;;;5092246;28;20246;-57
2023/02/09 00:07:43;;;;;;;22.53;14.30;;;-2.20;99.90;;;;;;5092008;28;20278;-58
2023/02/09 00:10:10;;;;;;;24.33;14.53;;;-2.20;99.90;;;;;;5092885;28;20200;-57
2023/02/09 00:15:22;;;;;;;24.60;14.17;;;-2.20;99.90;;;;;;5092073;28;20203;-56
2023/02/09 00:17:49;;;;;;;24.83;14.20;;;-2.30;99.90;;;;;;5091934;28;20205;-57
2023/02/09 00:20:16;;;;;;;23.57;13.40;;;-2.40;99.90;;;;;;5091756;28;20204;-56
2023/02/09 00:22:43;;;;;;;23.03;13.00;;;-2.50;99.90;;;;;;5091729;28;20200;-59
2023/02/09 00:25:09;;;;;;;22.03;12.90;;;-2.60;99.90;;;;;;5092583;28;20204;-60
2023/02/09 00:27:37;;;;;;;20.83;12.73;;;-2.60;99.90;;;;;;5094259;28;20258;-60
2023/02/09 00:30:05;;;;;;;22.43;12.50;;;-2.60;99.90;;;;;;5094228;28;20208;-60
2023/02/09 00:32:32;;;;;;;21.73;12.90;;;-2.70;99.90;;;;;;5092915;28;20227;-60
2023/02/09 00:34:59;;;;;;;20.83;12.03;;;-2.70;99.90;;;;;;5093730;28;20698;-60
2023/02/09 00:37:26;;;;;;;20.27;12.27;;;-2.80;99.90;;;;;;5093639;28;20236;-59
2023/02/09 00:39:53;;;;;;;20.60;12.70;;;-2.80;99.90;;;;;;5093886;28;20273;-60
2023/02/09 00:42:19;;;;;;;20.10;12.10;;;-2.70;99.90;;;;;;5093532;28;20280;-59
2023/02/09 00:44:47;;;;;;;18.37;11.57;;;-2.60;99.90;;;;;;5093482;28;20208;-60
2023/02/09 00:47:14;;;;;;;20.87;11.57;;;-2.60;99.90;;;;;;5093633;28;20232;-60
2023/02/09 00:49:41;;;;;;;21.70;12.47;;;-2.50;99.90;;;;;;5093170;28;20314;-59
2023/02/09 00:52:07;;;;;;;20.23;12.33;;;-2.40;99.90;;;;;;5092305;28;20714;-57
2023/02/09 00:54:34;;;;;;;20.43;12.63;;;-2.30;99.90;;;;;;5091295;28;20268;-58
2023/02/09 00:57:04;;;;;;;21.77;12.87;;;-2.30;99.90;;;;;;5091383;28;20220;-58
2023/02/09 00:59:33;;;;;;;20.17;12.40;;;-2.20;99.90;;;;;;5091354;28;20215;-58
2023/02/09 01:02:01;;;;;;;19.37;12.33;;;-2.20;99.90;;;;;;5091115;28;20286;-58
2023/02/09 01:04:28;;;;;;;21.17;12.47;;;-2.10;99.90;;;;;;5090792;28;20707;-59
2023/02/09 01:06:55;;;;;;;19.30;12.30;;;-2.10;99.90;;;;;;5091118;28;20228;-58
2023/02/09 01:09:22;;;;;;;20.43;12.47;;;-2.10;99.90;;;;;;5091357;28;20208;-58
2023/02/09 01:11:48;;;;;;;23.53;13.13;;;-2.10;99.90;;;;;;5090973;28;20224;-58
2023/02/09 01:14:15;;;;;;;20.87;13.07;;;-2.10;99.90;;;;;;5090946;28;20211;-57
2023/02/09 01:16:42;;;;;;;20.07;12.53;;;-2.10;99.90;;;;;;5091758;28;20293;-59
2023/02/09 01:19:12;;;;;;;20.77;13.63;;;-2.20;99.90;;;;;;5093068;28;20285;-57
2023/02/09 01:21:40;;;;;;;19.83;12.00;;;-2.20;99.90;;;;;;5092377;28;20254;-57
2023/02/09 01:24:06;;;;;;;21.90;12.50;;;-2.30;99.90;;;;;;5092424;28;20212;-59
2023/02/09 01:26:34;;;;;;;21.33;12.10;;;-2.30;99.90;;;;;;5092883;28;20236;-60
2023/02/09 01:29:00;;;;;;;19.53;12.20;;;-2.20;99.90;;;;;;5091861;28;20553;-57
2023/02/09 01:31:30;;;;;;;18.63;11.87;;;-2.20;99.90;;;;;;5092104;28;20226;-58
2023/02/09 01:33:59;;;;;;;21.97;13.63;;;-2.20;99.90;;;;;;5090736;28;20212;-58
2023/02/09 01:36:28;;;;;;;26.23;12.53;;;-2.20;99.90;;;;;;5090517;28;20769;-58
2023/02/09 01:38:55;;;;;;;19.83;11.77;;;-2.20;99.90;;;;;;5090836;28;20291;-58
2023/02/09 01:41:22;;;;;;;20.83;12.20;;;-2.20;99.90;;;;;;5090895;28;20196;-58
2023/02/09 01:43:52;;;;;;;19.17;12.13;;;-2.30;99.90;;;;;;5090841;28;20216;-58
2023/02/09 01:46:18;;;;;;;18.73;11.30;;;-2.50;99.90;;;;;;5090841;28;20273;-58
2023/02/09 01:48:46;;;;;;;18.97;11.63;;;-2.70;99.90;;;;;;5091415;28;20212;-58
2023/02/09 01:51:13;;;;;;;18.17;11.43;;;-2.80;99.90;;;;;;5090922;28;20257;-57
2023/02/09 01:53:42;;;;;;;19.30;12.20;;;-2.80;99.90;;;;;;5090758;28;20265;-58
2023/02/09 01:56:14;;;;;;;18.97;11.40;;;-2.80;99.90;;;;;;5092515;28;20227;-60
2023/02/09 01:58:41;;;;;;;23.17;12.83;;;-2.80;99.90;;;;;;5090796;28;20211;-60
2023/02/09 02:01:08;;;;;;;20.50;12.13;;;-2.70;99.90;;;;;;5090554;28;20204;-58
2023/02/09 02:03:35;;;;;;;18.60;12.17;;;-2.70;99.90;;;;;;5090897;28;20628;-57
2023/02/09 02:06:07;;;;;;;18.37;10.73;;;-2.80;99.90;;;;;;5090958;28;20265;-57
2023/02/09 02:08:38;;;;;;;16.97;10.67;;;-2.80;99.90;;;;;;5090575;28;20212;-58
2023/02/09 02:11:08;;;;;;;16.90;10.17;;;-2.90;99.90;;;;;;5091016;28;20246;-60
2023/02/09 02:13:35;;;;;;;18.10;10.60;;;-2.90;99.90;;;;;;5092155;28;20196;-60
2023/02/09 02:16:06;;;;;;;19.00;11.10;;;-3.00;99.90;;;;;;5098114;28;20734;-61
2023/02/09 02:19:07;;;;;;;16.17;10.47;;;-3.10;99.90;;;;;;5099283;28;20204;-59
2023/02/09 02:22:15;;;;;;;19.00;9.87;;;-3.20;99.90;;;;;;5095718;28;20283;-59
2023/02/09 02:25:11;;;;;;;14.63;9.67;;;-3.30;99.90;;;;;;5094942;28;20200;-58
2023/02/09 02:27:46;;;;;;;18.67;9.97;;;-3.50;99.90;;;;;;5094120;28;20696;-59
2023/02/09 02:30:37;;;;;;;15.83;9.73;;;-3.60;99.90;;;;;;5094059;28;20204;-59
2023/02/09 02:33:17;;;;;;;16.70;9.93;;;-3.60;99.90;;;;;;5093821;28;20224;-58
2023/02/09 02:35:49;;;;;;;17.30;10.63;;;-3.60;99.90;;;;;;5094269;28;20316;-58
2023/02/09 02:38:21;;;;;;;16.70;9.40;;;-3.60;99.90;;;;;;5094150;28;20215;-58
2023/02/09 02:40:55;;;;;;;16.27;9.47;;;-3.70;99.90;;;;;;5094020;28;20848;-59
2023/02/09 02:43:36;;;;;;;14.47;9.20;;;-4.00;99.90;;;;;;5093625;28;20222;-58
2023/02/09 02:46:08;;;;;;;17.63;10.17;;;-4.00;99.90;;;;;;5093900;28;20228;-59
2023/02/09 02:48:41;;;;;;;15.80;8.80;;;-3.90;99.90;;;;;;5093789;28;20204;-59
2023/02/09 02:51:13;;;;;;;15.27;9.13;;;-4.00;99.90;;;;;;5094056;28;20252;-58
2023/02/09 02:53:43;;;;;;;14.40;8.70;;;-4.00;99.90;;;;;;5093523;28;20224;-59
2023/02/09 02:56:15;;;;;;;18.50;8.93;;;-4.00;99.90;;;;;;5093490;28;20254;-59
2023/02/09 02:58:44;;;;;;;14.50;9.03;;;-4.00;99.90;;;;;;5093585;28;20216;-58
2023/02/09 03:01:16;;;;;;;14.70;8.77;;;-3.90;99.90;;;;;;5093395;28;20290;-58
2023/02/09 03:03:46;;;;;;;16.20;8.67;;;-3.80;99.90;;;;;;5093030;28;20621;-56
2023/02/09 03:06:14;;;;;;;17.67;10.23;;;-3.70;99.90;;;;;;5093509;28;20231;-57
2023/02/09 03:08:49;;;;;;;15.33;8.80;;;-3.60;99.90;;;;;;5093256;28;20257;-58
2023/02/09 03:11:17;;;;;;;16.57;9.27;;;-3.60;99.90;;;;;;5093192;28;20206;-59
2023/02/09 03:14:02;;;;;;;15.60;9.70;;;-3.60;99.90;;;;;;5092919;28;20647;-59
2023/02/09 03:16:37;;;;;;;15.07;9.17;;;-3.40;99.90;;;;;;5093210;28;20224;-58
2023/02/09 03:19:16;;;;;;;15.50;9.33;;;-3.40;99.90;;;;;;5093163;28;20544;-60
2023/02/09 03:21:49;;;;;;;16.80;9.30;;;-3.40;99.90;;;;;;5093132;28;20211;-59
2023/02/09 03:24:28;;;;;;;15.37;9.23;;;-3.40;99.90;;;;;;5092627;28;20219;-58
2023/02/09 03:26:59;;;;;;;15.47;9.83;;;-3.30;99.90;;;;;;5091821;28;20342;-58
2023/02/09 03:29:28;;;;;;;16.17;9.40;;;-3.20;99.90;;;;;;5092753;28;20208;-59
2023/02/09 03:31:55;;;;;;;17.87;9.77;;;-3.10;99.90;;;;;;5092603;28;20569;-58
2023/02/09 03:34:23;;;;;;;16.10;9.30;;;-3.10;99.90;;;;;;5092315;28;20261;-57
2023/02/09 03:36:52;;;;;;;14.43;8.97;;;-3.00;99.90;;;;;;5092347;28;20294;-56
2023/02/09 03:39:18;;;;;;;16.47;9.77;;;-3.00;99.90;;;;;;5092838;28;20371;-58
2023/02/09 03:41:45;;;;;;;14.67;9.60;;;-3.00;99.90;;;;;;5092713;28;20390;-58
2023/02/09 03:44:27;;;;;;;18.73;10.53;;;-3.00;99.90;;;;;;5092189;28;20570;-58
2023/02/09 03:46:54;;;;;;;15.57;9.20;;;-3.00;99.90;;;;;;5092556;28;20231;-57
2023/02/09 03:49:23;;;;;;;14.57;8.97;;;-3.10;99.90;;;;;;5092736;28;20299;-57
2023/02/09 03:51:50;;;;;;;14.97;9.20;;;-3.20;99.90;;;;;;5092502;28;20231;-57
2023/02/09 03:54:16;;;;;;;16.00;9.97;;;-3.30;99.90;;;;;;5092182;28;20204;-59
2023/02/09 03:56:46;;;;;;;19.47;10.40;;;-3.30;99.90;;;;;;5092289;28;20228;-57
2023/02/09 03:59:13;;;;;;;14.40;9.27;;;-3.40;99.90;;;;;;5092151;28;20586;-58
2023/02/09 04:01:39;;;;;;;18.83;9.70;;;-3.40;99.90;;;;;;5092264;28;20523;-58
2023/02/09 04:04:06;;;;;;;16.93;9.70;;;-3.40;99.90;;;;;;5091909;28;20214;-58
2023/02/09 04:06:35;;;;;;;18.23;10.30;;;-3.50;99.90;;;;;;5092328;28;20232;-58
2023/02/09 04:09:02;;;;;;;16.87;9.63;;;-3.50;99.90;;;;;;5092012;28;20212;-57
2023/02/09 04:11:29;;;;;;;18.63;9.60;;;-3.60;99.90;;;;;;5091936;28;20298;-58
2023/02/09 04:13:56;;;;;;;15.23;9.13;;;-3.70;99.90;;;;;;5091672;28;20726;-58
2023/02/09 04:16:23;;;;;;;14.73;9.03;;;-3.70;99.90;;;;;;5091811;28;20232;-57
2023/02/09 04:18:49;;;;;;;16.60;9.13;;;-3.70;99.90;;;;;;5092068;28;20296;-57
2023/02/09 04:21:16;;;;;;;16.97;8.83;;;-3.80;99.90;;;;;;5092014;28;20204;-58
2023/02/09 04:23:44;;;;;;;14.20;9.03;;;-4.00;99.90;;;;;;5091722;28;20200;-58
2023/02/09 04:26:11;;;;;;;14.03;9.03;;;-4.20;99.90;;;;;;5091813;28;20304;-58
2023/02/09 04:28:38;;;;;;;15.93;9.70;;;-4.30;99.90;;;;;;5091872;28;20204;-58
2023/02/09 04:31:05;;;;;;;16.77;9.13;;;-4.20;99.90;;;;;;5091539;28;20289;-58
2023/02/09 04:33:31;;;;;;;16.00;9.67;;;-4.30;99.90;;;;;;5091639;28;20281;-59
2023/02/09 04:35:58;;;;;;;12.73;8.50;;;-4.40;99.90;;;;;;5091777;28;20283;-59
2023/02/09 04:38:25;;;;;;;15.33;9.20;;;-4.60;99.90;;;;;;5091746;28;20204;-58
2023/02/09 04:40:55;;;;;;;15.17;9.03;;;-4.60;99.90;;;;;;5091631;28;20672;-57
2023/02/09 04:43:22;;;;;;;14.33;9.40;;;-4.50;99.90;;;;;;5091679;28;20303;-58
2023/02/09 04:45:49;;;;;;;15.47;9.57;;;-4.50;99.90;;;;;;5091628;28;20285;-56
2023/02/09 04:48:20;;;;;;;13.57;8.87;;;-4.40;99.90;;;;;;5091914;28;20650;-57
2023/02/09 04:50:47;;;;;;;16.93;8.87;;;-4.20;99.90;;;;;;5091577;28;20204;-57
2023/02/09 04:53:14;;;;;;;16.23;9.13;;;-4.20;99.90;;;;;;5091244;28;20273;-58
2023/02/09 04:55:43;;;;;;;14.00;8.53;;;-4.00;99.90;;;;;;5091284;28;20277;-56
2023/02/09 05:00:56;;;;;;;13.07;8.70;;;-3.90;99.90;;;;;;5091635;28;20211;-58
2023/02/09 05:03:24;;;;;;;19.87;11.80;;;-3.80;99.90;;;;;;5091087;28;20540;-57
2023/02/09 05:05:54;;;;;;;16.43;9.73;;;-3.70;99.90;;;;;;5091038;28;20227;-58
2023/02/09 05:08:20;;;;;;;17.67;8.90;;;-3.40;99.90;;;;;;5091042;28;20668;-58
2023/02/09 05:10:47;;;;;;;14.60;8.63;;;-3.80;99.90;;;;;;5091230;28;20234;-57
2023/02/09 05:13:15;;;;;;;15.17;9.37;;;-3.80;99.90;;;;;;5090812;28;20220;-57
2023/02/09 05:15:42;;;;;;;14.57;9.37;;;-3.70;99.90;;;;;;5091272;28;20247;-57
2023/02/09 05:18:09;;;;;;;15.83;9.40;;;-3.70;99.90;;;;;;5091442;28;20208;-58
2023/02/09 05:20:37;;;;;;;15.07;8.63;;;-3.80;99.90;;;;;;5091102;28;20265;-57
2023/02/09 05:23:03;;;;;;;16.23;8.73;;;-3.70;99.90;;;;;;5090544;28;20216;-56
2023/02/09 05:25:30;;;;;;;13.03;8.77;;;-3.70;99.90;;;;;;5091116;28;20200;-57
2023/02/09 05:27:57;;;;;;;17.10;9.57;;;-3.70;99.90;;;;;;5090966;28;20204;-56
2023/02/09 05:30:26;;;;;;;16.30;8.60;;;-3.70;99.90;;;;;;5091208;28;20253;-57
2023/02/09 05:32:53;;;;;;;14.00;8.17;;;-3.70;99.90;;;;;;5090906;28;20228;-56
2023/02/09 05:35:19;;;;;;;12.43;8.20;;;-3.70;99.90;;;;;;5090923;28;20208;-57
2023/02/09 05:37:46;;;;;;;14.67;8.33;;;-3.90;99.90;;;;;;5091101;28;20232;-57
2023/02/09 05:40:13;;;;;;;13.37;8.77;;;-4.10;99.90;;;;;;5091393;28;20208;-58
2023/02/09 05:42:40;;;;;;;13.87;7.63;;;-4.20;99.90;;;;;;5091359;28;20204;-58
2023/02/09 05:45:08;;;;;;;15.07;9.20;;;-4.40;99.90;;;;;;5090924;28;20295;-58
2023/02/09 05:47:36;;;;;;;16.47;8.80;;;-4.50;99.90;;;;;;5091360;28;20700;-57
2023/02/09 05:50:02;;;;;;;16.13;9.50;;;-4.50;99.90;;;;;;5092338;28;20212;-58
2023/02/09 05:52:29;;;;;;;14.23;8.53;;;-4.50;99.90;;;;;;5094559;28;20332;-58
2023/02/09 05:54:56;;;;;;;16.03;9.63;;;-4.30;99.90;;;;;;5094541;28;20212;-56
2023/02/09 05:57:22;;;;;;;13.13;8.77;;;-4.20;99.90;;;;;;5094766;28;20320;-57
2023/02/09 05:59:49;;;;;;;12.40;8.10;;;-4.10;99.90;;;;;;5094638;28;20309;-58
2023/02/09 06:02:16;;;;;;;16.10;9.27;;;-4.00;99.90;;;;;;5094718;28;20208;-59
2023/02/09 06:04:44;;;;;;;15.77;8.33;;;-4.00;99.90;;;;;;5094560;28;20682;-58
2023/02/09 06:07:11;;;;;;;17.77;8.50;;;-4.00;99.90;;;;;;5094751;28;20239;-58
2023/02/09 06:09:37;;;;;;;16.90;9.13;;;-3.90;99.90;;;;;;5094367;28;20211;-60
2023/02/09 06:12:05;;;;;;;14.37;8.60;;;-4.00;99.90;;;;;;5094472;28;20626;-58
2023/02/09 06:14:31;;;;;;;13.93;8.70;;;-4.10;99.90;;;;;;5094158;28;20224;-58
2023/02/09 06:16:58;;;;;;;17.20;8.67;;;-4.20;99.90;;;;;;5094091;28;20341;-58
2023/02/09 06:19:25;;;;;;;14.97;9.40;;;-4.40;99.90;;;;;;5094235;28;20212;-57
2023/02/09 06:21:53;;;;;;;17.17;10.00;;;-4.40;99.90;;;;;;5094611;28;20200;-58
2023/02/09 06:24:19;;;;;;;17.17;9.60;;;-4.30;99.90;;;;;;5094083;28;20245;-58
2023/02/09 06:26:46;;;;;;;15.30;9.23;;;-4.20;99.90;;;;;;5094244;28;20289;-58
2023/02/09 06:29:13;;;;;;;15.63;8.60;;;-4.20;99.90;;;;;;5094018;28;20679;-57
2023/02/09 06:31:40;;;;;;;14.30;9.00;;;-4.30;99.90;;;;;;5094137;28;20207;-58
2023/02/09 06:34:07;;;;;;;13.17;8.60;;;-4.30;99.90;;;;;;5094063;28;20232;-58
2023/02/09 06:36:34;;;;;;;15.13;8.50;;;-4.20;99.90;;;;;;5093772;28;20773;-58
2023/02/09 06:39:02;;;;;;;17.87;9.47;;;-4.10;99.90;;;;;;5094008;28;20208;-59
2023/02/09 06:41:29;;;;;;;19.03;9.30;;;-4.10;99.90;;;;;;5094103;28;20204;-59
2023/02/09 06:43:55;;;;;;;15.37;9.23;;;-4.10;99.90;;;;;;5093288;28;20254;-59
2023/02/09 06:46:22;;;;;;;15.63;9.20;;;-4.10;99.90;;;;;;5093418;28;20784;-58
2023/02/09 06:48:49;;;;;;;16.70;9.17;;;-4.10;99.90;;;;;;5093479;28;20207;-59
2023/02/09 06:51:16;;;;;;;23.27;14.90;;;-4.00;99.90;;;;;;5093850;28;20200;-58
2023/02/09 06:53:43;;;;;;;16.07;9.67;;;-3.90;99.90;;;;;;5093334;28;20246;-59
2023/02/09 06:56:13;;;;;;;16.47;10.80;;;-3.80;99.90;;;;;;5093523;28;20406;-57
2023/02/09 06:58:40;;;;;;;16.17;9.37;;;-3.80;99.90;;;;;;5093726;28;20212;-59
2023/02/09 07:01:09;;;;;;;16.60;9.77;;;-3.60;99.90;;;;;;5093501;28;20294;-59
2023/02/09 07:03:37;;;;;;;15.63;9.37;;;-3.60;99.90;;;;;;5093250;28;20201;-58
2023/02/09 07:06:06;;;;;;;16.47;9.87;;;-3.50;99.90;;;;;;5093272;28;20277;-57
2023/02/09 07:08:33;;;;;;;14.57;9.57;;;-3.50;99.90;;;;;;5093379;28;20208;-57
2023/02/09 07:11:02;;;;;;;17.13;10.07;;;-3.40;99.90;;;;;;5093078;28;20625;-58
2023/02/09 07:13:30;;;;;;;18.37;9.53;;;-3.30;99.90;;;;;;5092840;28;20259;-57
2023/02/09 07:15:58;;;;;;;15.67;9.87;;;-3.30;99.90;;;;;;5093210;28;20224;-58
2023/02/09 07:18:25;;;;;;;14.53;9.27;;;-3.20;99.90;;;;;;5092930;28;20257;-58
2023/02/09 07:20:55;;;;;;;14.07;8.93;;;-2.80;99.90;;;;;;5093144;28;20299;-59
2023/02/09 07:23:23;;;;;;;14.80;9.07;;;-2.40;99.90;;;;;;5092931;28;20688;-57
2023/02/09 07:25:49;;;;;;;14.53;8.97;;;-2.40;99.90;;;;;;5092579;28;20228;-58
2023/02/09 07:28:19;;;;;;;13.67;9.37;;;-2.30;99.90;;;;;;5092665;28;20246;-58
2023/02/09 07:30:47;;;;;;;16.10;9.40;;;-2.30;99.90;;;;;;5092915;28;20203;-58
2023/02/09 07:33:14;;;;;;;13.93;9.53;;;-2.50;99.90;;;;;;5092513;28;20224;-58
2023/02/09 07:35:41;;;;;;;16.47;9.73;;;-2.60;99.90;;;;;;5092587;28;20295;-57
2023/02/09 07:38:07;;;;;;;15.60;9.23;;;-2.60;99.90;;;;;;5092713;28;20204;-57
2023/02/09 07:40:35;;;;;;;13.97;8.83;;;-2.60;99.90;;;;;;5092842;28;20243;-59
2023/02/09 07:43:02;;;;;;;15.77;9.27;;;-2.60;99.90;;;;;;5092700;28;20204;-58
2023/02/09 07:45:29;;;;;;;16.63;9.97;;;-2.50;99.90;;;;;;5092809;28;20250;-58
2023/02/09 07:47:57;;;;;;;18.03;9.40;;;-2.50;99.90;;;;;;5092586;28;20249;-57
2023/02/09 07:50:23;;;;;;;19.03;9.83;;;-2.40;99.90;;;;;;5092379;28;20574;-55
2023/02/09 07:52:52;;;;;;;17.57;10.90;;;-2.20;99.90;;;;;;5092430;28;20605;-56
2023/02/09 07:55:19;;;;;;;16.37;10.07;;;-2.10;99.90;;;;;;5092271;28;20212;-55
2023/02/09 07:57:46;;;;;;;15.43;9.67;;;-1.90;99.90;;;;;;5092530;28;20224;-57
2023/02/09 08:00:14;;;;;;;19.67;10.70;;;-1.90;99.90;;;;;;5092238;28;20629;-54
2023/02/09 08:02:41;;;;;;;20.23;10.00;;;-1.90;99.90;;;;;;5092039;28;20295;-56
2023/02/09 08:05:14;;;;;;;14.43;10.00;;;-1.80;99.90;;;;;;5091709;28;20253;-55
2023/02/09 08:07:40;;;;;;;19.17;10.57;;;-1.80;99.90;;;;;;5092303;28;20233;-56
2023/02/09 08:10:08;;;;;;;14.97;9.43;;;-1.90;99.90;;;;;;5092077;28;20200;-57
2023/02/09 08:15:39;;;;;;;17.07;10.10;;;-2.10;99.90;;;;;;5029243;28;20276;-56
2023/02/09 08:18:11;;;;;;;17.43;10.33;;;-2.20;99.90;;;;;;5029476;28;20238;-56
2023/02/09 08:20:39;;;;;;;15.53;10.03;;;-2.10;99.90;;;;;;5060634;28;20200;-54
2023/02/09 08:23:11;;;;;;;17.33;10.87;;;-2.00;99.90;;;;;;5091771;28;20295;-55
2023/02/09 08:25:39;;;;;;;18.07;10.43;;;-1.90;99.90;;;;;;5091836;28;20231;-55
2023/02/09 08:28:06;;;;;;;22.07;11.10;;;-1.80;99.90;;;;;;5091764;28;20672;-55
2023/02/09 08:30:34;;;;;;;15.10;9.97;;;-1.70;99.90;;;;;;5091542;28;20204;-54
2023/02/09 08:33:01;;;;;;;16.53;9.80;;;-1.50;99.90;;;;;;5091411;28;20257;-55
2023/02/09 08:35:28;;;;;;;16.10;9.83;;;-1.40;99.90;;;;;;5091594;28;20231;-55
2023/02/09 08:37:59;;;;;;;16.07;10.10;;;-1.20;99.90;;;;;;5091902;28;20216;-57
2023/02/09 08:40:26;;;;;;;17.57;10.30;;;-1.10;99.90;;;;;;5091347;28;20734;-56
2023/02/09 08:42:53;;;;;;;16.17;10.83;;;-0.90;99.90;;;;;;5091609;28;20575;-57
2023/02/09 08:45:20;;;;;;;17.17;10.40;;;-0.70;99.90;;;;;;5091026;28;20727;-56
2023/02/09 08:47:47;;;;;;;15.57;10.67;;;-0.50;99.90;;;;;;5091245;28;20688;-56
2023/02/09 08:50:14;;;;;;;19.73;10.00;;;-0.40;99.90;;;;;;5091171;28;20234;-56
2023/02/09 08:52:41;;;;;;;15.90;10.53;;;-0.30;99.90;;;;;;5091357;28;20215;-56
2023/02/09 08:55:09;;;;;;;15.77;11.10;;;-0.10;99.90;;;;;;5090984;28;20265;-56
2023/02/09 08:57:36;;;;;;;19.13;11.10;;;0.00;99.90;;;;;;5090902;28;20604;-56
2023/02/09 09:00:03;;;;;;;14.23;10.00;;;0.10;99.90;;;;;;5091133;28;20528;-56
2023/02/09 09:02:30;;;;;;;17.77;10.83;;;0.20;99.90;;;;;;5091289;28;20204;-56
2023/02/09 09:04:57;;;;;;;17.37;11.27;;;0.30;99.90;;;;;;5090841;28;20559;-57
2023/02/09 09:07:23;;;;;;;18.90;11.63;;;0.50;99.90;;;;;;5091161;28;20322;-56
2023/02/09 09:09:50;;;;;;;17.13;11.50;;;0.40;99.90;;;;;;5091096;28;20204;-56
2023/02/09 09:12:18;;;;;;;17.87;12.03;;;0.40;99.90;;;;;;5091040;28;20212;-57
2023/02/09 09:14:45;;;;;;;17.97;11.10;;;0.50;99.90;;;;;;5091251;28;20280;-57
2023/02/09 09:17:12;;;;;;;16.93;12.13;;;0.60;99.90;;;;;;5091894;28;20337;-57
2023/02/09 09:19:38;;;;;;;19.03;12.23;;;0.60;99.90;;;;;;5092163;28;20204;-56
2023/02/09 09:22:05;;;;;;;17.33;11.97;;;0.70;99.90;;;;;;5092299;28;20216;-57
2023/02/09 09:24:38;;;;;;;20.67;13.13;;;0.80;99.90;;;;;;5094153;28;20204;-57
2023/02/09 09:27:05;;;;;;;19.73;12.60;;;0.80;99.90;;;;;;5096138;28;20224;-57
2023/02/09 09:29:33;;;;;;;21.60;13.80;;;1.00;99.90;;;;;;5095635;28;20595;-55
2023/02/09 09:32:00;;;;;;;18.23;13.00;;;1.20;99.90;;;;;;5096149;28;20310;-56
2023/02/09 09:34:26;;;;;;;19.77;13.10;;;1.20;99.90;;;;;;5095068;28;20664;-55
2023/02/09 09:36:53;;;;;;;22.23;13.17;;;1.30;99.90;;;;;;5095253;28;20232;-56
2023/02/09 09:39:20;;;;;;;18.57;13.67;;;1.50;99.90;;;;;;5094896;28;20204;-57
2023/02/09 09:41:49;;;;;;;22.07;14.37;;;1.70;99.90;;;;;;5095184;28;20208;-55
2023/02/09 09:44:22;;;;;;;23.13;14.10;;;1.90;99.90;;;;;;5095314;28;20204;-56
2023/02/09 09:46:53;;;;;;;21.27;14.97;;;2.10;99.90;;;;;;5094957;28;20722;-56
2023/02/09 09:49:23;;;;;;;24.00;16.10;;;2.30;99.90;;;;;;5095252;28;20257;-56
2023/02/09 09:51:55;;;;;;;22.93;14.47;;;2.50;99.90;;;;;;5094900;28;20227;-56
2023/02/09 09:54:25;;;;;;;22.83;16.33;;;2.50;99.90;;;;;;5094643;28;20240;-56
2023/02/09 09:56:53;;;;;;;27.83;18.17;;;2.40;99.90;;;;;;5094972;28;20223;-55
2023/02/09 09:59:21;;;;;;;23.33;15.87;;;2.50;99.90;;;;;;5094648;28;20208;-55
2023/02/09 10:01:52;;;;;;;23.40;16.83;;;2.70;99.90;;;;;;5094609;28;20227;-55
2023/02/09 10:04:20;;;;;;;26.87;17.23;;;2.60;99.90;;;;;;5094234;28;20208;-55
2023/02/09 10:06:51;;;;;;;22.97;16.37;;;2.70;99.90;;;;;;5094379;28;20247;-55
2023/02/09 10:09:37;;;;;;;22.27;15.90;;;2.80;99.90;;;;;;5094545;28;20208;-56
2023/02/09 10:12:14;;;;;;;24.83;16.17;;;3.00;99.90;;;;;;5093675;28;20215;-55
2023/02/09 10:14:41;;;;;;;25.57;16.67;;;3.20;99.90;;;;;;5094084;28;20247;-57
2023/02/09 10:17:09;;;;;;;22.30;16.17;;;3.40;99.90;;;;;;5094239;28;20228;-56
2023/02/09 10:19:36;;;;;;;23.00;15.77;;;3.50;99.90;;;;;;5093855;28;20609;-56
2023/02/09 10:22:03;;;;;;;23.50;17.17;;;3.60;99.90;;;;;;5093985;28;20212;-56
2023/02/09 10:24:32;;;;;;;24.10;16.70;;;3.60;99.90;;;;;;5093610;28;20204;-55
2023/02/09 10:27:07;;;;;;;26.00;16.87;;;3.60;99.90;;;;;;5093877;28;20234;-56
2023/02/09 10:29:34;;;;;;;24.60;17.03;;;3.80;99.90;;;;;;5094056;28;20212;-56
2023/02/09 10:32:06;;;;;;;25.33;17.23;;;4.00;99.90;;;;;;5093870;28;20243;-56
2023/02/09 10:34:42;;;;;;;24.63;17.60;;;4.10;99.90;;;;;;5093194;28;20385;-56
2023/02/09 10:37:28;;;;;;;23.77;16.37;;;4.10;99.90;;;;;;5092953;28;20232;-56
2023/02/09 10:40:05;;;;;;;26.13;17.33;;;4.20;99.90;;;;;;5093838;28;20192;-55
2023/02/09 10:42:33;;;;;;;29.57;18.20;;;4.10;99.90;;;;;;5093698;28;20200;-55
2023/02/09 10:45:08;;;;;;;24.87;16.63;;;4.00;99.90;;;;;;5093358;28;20476;-56
2023/02/09 10:47:35;;;;;;;25.93;16.87;;;4.20;99.90;;;;;;5093227;28;20310;-55
2023/02/09 10:50:16;;;;;;;27.10;17.33;;;4.30;99.90;;;;;;5093117;28;20211;-56
2023/02/09 10:52:55;;;;;;;23.40;17.57;;;4.30;99.90;;;;;;5093087;28;20825;-56
2023/02/09 10:55:25;;;;;;;27.50;16.43;;;4.50;99.90;;;;;;5092658;28;20223;-57
2023/02/09 10:58:04;;;;;;;24.03;17.43;;;4.70;99.90;;;;;;5093330;28;20204;-56
2023/02/09 11:00:37;;;;;;;25.70;18.07;;;4.90;99.90;;;;;;5092788;28;20682;-56
2023/02/09 11:03:16;;;;;;;27.83;18.20;;;5.00;99.90;;;;;;5092885;28;20311;-56
2023/02/09 11:05:46;;;;;;;25.63;17.70;;;5.10;99.90;;;;;;5092993;28;20310;-57
2023/02/09 11:08:19;;;;;;;22.80;16.13;;;5.10;99.90;;;;;;5092794;28;20208;-56
2023/02/09 11:10:56;;;;;;;25.13;16.63;;;5.10;99.90;;;;;;5092584;28;20289;-56
2023/02/09 11:13:25;;;;;;;25.73;17.30;;;5.10;99.90;;;;;;5093028;28;20535;-57
2023/02/09 11:16:20;;;;;;;23.90;17.03;;;5.30;99.90;;;;;;5092661;28;20232;-56
2023/02/09 11:18:52;;;;;;;24.43;16.97;;;5.40;99.90;;;;;;5092643;28;20247;-56
2023/02/09 11:21:32;;;;;;;25.90;16.70;;;5.40;99.90;;;;;;5092745;28;20294;-56
2023/02/09 11:24:07;;;;;;;27.37;17.13;;;5.50;99.90;;;;;;5092473;28;20211;-57
2023/02/09 11:26:41;;;;;;;22.37;16.43;;;5.60;99.90;;;;;;5092390;28;20610;-56
2023/02/09 11:29:18;;;;;;;23.53;15.63;;;5.70;99.90;;;;;;5092754;28;20672;-57
2023/02/09 11:32:11;;;;;;;23.63;15.37;;;5.80;99.90;;;;;;5092574;28;20204;-58
2023/02/09 11:35:01;;;;;;;22.50;16.10;;;5.80;99.90;;;;;;5092183;28;20574;-58
2023/02/09 11:37:36;;;;;;;22.77;15.97;;;5.80;99.90;;;;;;5091994;28;20243;-56
2023/02/09 11:40:16;;;;;;;22.33;15.77;;;6.00;99.90;;;;;;5092429;28;20208;-55
2023/02/09 11:42:48;;;;;;;23.57;15.60;;;6.20;99.90;;;;;;5092805;28;20253;-55
2023/02/09 11:45:23;;;;;;;21.70;15.63;;;6.30;99.90;;;;;;5091961;28;20207;-54
2023/02/09 11:47:58;;;;;;;23.50;15.87;;;6.30;99.90;;;;;;5091167;28;20596;-56
2023/02/09 11:50:30;;;;;;;23.37;15.80;;;6.40;99.90;;;;;;5092003;28;20530;-56
2023/02/09 11:53:01;;;;;;;23.23;16.47;;;6.50;99.90;;;;;;5092465;28;20204;-55
2023/02/09 11:55:33;;;;;;;21.60;15.93;;;6.50;99.90;;;;;;5091827;28;20228;-54
2023/02/09 11:58:15;;;;;;;23.27;16.07;;;6.60;99.90;;;;;;5092216;28;20226;-55
2023/02/09 12:00:47;;;;;;;25.10;16.07;;;6.50;99.90;;;;;;5092258;28;20211;-55
2023/02/09 12:03:14;;;;;;;23.33;15.73;;;6.50;99.90;;;;;;5092198;28;20617;-56
2023/02/09 12:05:43;;;;;;;18.90;14.60;;;6.50;99.90;;;;;;5091472;28;20641;-55
2023/02/09 12:08:43;;;;;;;21.70;15.57;;;6.70;99.90;;;;;;5092127;28;20303;-56
2023/02/09 12:11:25;;;;;;;22.47;15.30;;;7.00;99.50;;;;;;5092179;28;20208;-57
2023/02/09 12:14:04;;;;;;;21.33;17.45;;;7.10;99.20;;;;;;5087628;28;20445;-55
2023/02/09 12:16:34;;;;;;;20.67;15.90;;;7.20;99.20;;;;;;5079778;28;20229;-60
2023/02/09 12:19:04;;;;;;;22.03;15.90;;;7.20;98.80;;;;;;5070610;28;20213;-58
2023/02/09 12:21:33;;;;;;;21.50;16.40;;;7.10;99.00;;;;;;5070281;28;20304;-59
2023/02/09 12:24:01;;;;;;;23.20;15.63;;;7.00;99.10;;;;;;5069935;28;20212;-59
2023/02/09 12:26:41;;;;;;;20.57;15.20;;;7.00;98.90;;;;;;5070346;28;20225;-57
2023/02/09 12:29:25;;;;;;;20.43;14.10;;;6.70;99.10;;;;;;5070026;28;20515;-57
2023/02/09 12:32:24;;;;;;;21.00;15.23;;;6.40;99.50;;;;;;5070372;28;20307;-58
2023/02/09 12:34:54;;;;;;;22.23;14.87;;;6.30;99.60;;;;;;5070140;28;20228;-57
2023/02/09 12:37:23;;;;;;;23.17;16.20;;;6.30;99.90;;;;;;5070081;28;20298;-57
2023/02/09 12:40:23;;;;;;;20.97;16.00;;;6.40;99.90;;;;;;5070052;28;20205;-59
2023/02/09 12:43:28;;;;;;;23.67;16.10;;;6.60;99.90;;;;;;5070011;28;20232;-58
2023/02/09 12:46:18;;;;;;;23.10;15.27;;;6.80;99.90;;;;;;5069859;28;20311;-59
2023/02/09 12:48:59;;;;;;;19.53;14.73;;;7.00;99.10;;;;;;5064744;28;20211;-59
2023/02/09 12:51:47;;;;;;;21.50;15.07;;;6.90;99.10;;;;;;5069997;28;20281;-62
2023/02/09 12:54:36;;;;;;;18.23;13.93;;;6.70;98.90;;;;;;5069534;28;20212;-62
2023/02/09 12:57:52;;;;;;;22.00;15.57;;;6.50;98.90;;;;;;5069531;28;20497;-60